EUR65 DABT-VABB
Flight info
| Callsign | EUR65 |
|---|---|
| Flight time | N/A |
| Altitude | 37000 |
| Route | DABT TUC DIDON SONAK DOBIX ASDAX GZO AGARI EVIRA BINKO ALIXA DEMAG PIDAS PLH OTREX AMAXI SIT LAPSO NIPIS TELRI VEREK PERIM GISOS VAXOS AMONO TOSKA TOBAL RUBIK LCA REXAL DESPO KUKLA KAD DAM SOFIA ABBAS SULAF TAN MODIK RAPLU PUSTO LOVEK DISAR BSR SIDAD DESLU NANPI OBMOR ALNIN IMDAT DURSI EGMID ORSAR MUTVI SHJ TONVO ALSAS DORAB VAXIM RASKI LADOT NOBAT EXOLU VABB |
| Aircraft | A388/J-DGVW/C |
Departure
| Time | 2026-04-14 06:45 |
|---|---|
| Airport | Batna Mostefa Ben Boulaid Airport (DABT) |
Arrival
| Time | N/A |
|---|---|
| Airport | Chhatrapati Shivaji Maharaj International Airport (VABB) |
| Time | Latitude | Longitude | Altitude | Speed | Heading |
|---|---|---|---|---|---|
| 2026-04-14 06:39 | 35.75631 | 6.30956 | 2708 ft | 0 kts | 143° |
| 2026-04-14 06:40 | 35.75627 | 6.30960 | 2708 ft | 6 kts | 137° |
| 2026-04-14 06:41 | 35.75611 | 6.31002 | 2708 ft | 1 kts | 103° |
| 2026-04-14 06:41 | 35.75540 | 6.31108 | 2708 ft | 23 kts | 95° |
| 2026-04-14 06:41 | 35.75668 | 6.31395 | 2708 ft | 57 kts | 49° |
| 2026-04-14 06:41 | 35.75798 | 6.31690 | 2708 ft | 18 kts | 125° |
| 2026-04-14 06:42 | 35.75686 | 6.31794 | 2708 ft | 20 kts | 96° |
| 2026-04-14 06:42 | 35.75811 | 6.32026 | 2708 ft | 52 kts | 53° |
| 2026-04-14 06:42 | 35.75977 | 6.32230 | 2708 ft | 10 kts | 65° |
| 2026-04-14 06:42 | 35.75958 | 6.32270 | 2708 ft | 7 kts | 162° |
| 2026-04-14 06:43 | 35.75918 | 6.32233 | 2708 ft | 18 kts | 248° |
| 2026-04-14 06:43 | 35.75897 | 6.32162 | 2708 ft | 0 kts | 232° |
| 2026-04-14 06:43 | 35.75896 | 6.32162 | 2708 ft | 0 kts | 232° |
| 2026-04-14 06:44 | 35.75831 | 6.32055 | 2708 ft | 44 kts | 238° |
| 2026-04-14 06:44 | 35.75534 | 6.31516 | 2708 ft | 108 kts | 235° |
| 2026-04-14 06:44 | 35.74996 | 6.30546 | 2712 ft | 165 kts | 242° |
| 2026-04-14 06:44 | 35.74285 | 6.29260 | 3178 ft | 196 kts | 236° |
| 2026-04-14 06:45 | 35.73295 | 6.28061 | 4240 ft | 213 kts | 224° |
| 2026-04-14 06:45 | 35.71866 | 6.27343 | 5230 ft | 229 kts | 196° |
| 2026-04-14 06:45 | 35.71599 | 6.27307 | 5403 ft | 231 kts | 192° |
| 2026-04-14 06:46 | 35.69704 | 6.27783 | 6594 ft | 242 kts | 157° |
| 2026-04-14 06:46 | 35.68424 | 6.29094 | 7613 ft | 240 kts | 128° |
| 2026-04-14 06:46 | 35.67762 | 6.30922 | 8619 ft | 231 kts | 99° |
| 2026-04-14 06:47 | 35.67854 | 6.32823 | 9624 ft | 218 kts | 71° |
| 2026-04-14 06:47 | 35.68553 | 6.34403 | 10692 ft | 206 kts | 53° |
| 2026-04-14 06:47 | 35.69423 | 6.35768 | 11662 ft | 202 kts | 48° |
| 2026-04-14 06:47 | 35.70372 | 6.37128 | 12226 ft | 219 kts | 47° |
| 2026-04-14 06:48 | 35.71423 | 6.38600 | 12766 ft | 238 kts | 47° |
| 2026-04-14 06:48 | 35.72564 | 6.40194 | 13304 ft | 259 kts | 48° |
| 2026-04-14 06:48 | 35.73811 | 6.41938 | 13836 ft | 283 kts | 48° |
| 2026-04-14 06:48 | 35.75149 | 6.43820 | 14361 ft | 309 kts | 49° |
| 2026-04-14 06:49 | 35.76603 | 6.45965 | 14929 ft | 335 kts | 51° |
| 2026-04-14 06:49 | 35.77991 | 6.48293 | 15440 ft | 342 kts | 55° |
| 2026-04-14 06:49 | 35.79278 | 6.50757 | 15944 ft | 335 kts | 59° |
| 2026-04-14 06:49 | 35.80446 | 6.53249 | 16444 ft | 338 kts | 61° |
| 2026-04-14 06:50 | 35.81535 | 6.55794 | 16942 ft | 343 kts | 63° |
| 2026-04-14 06:50 | 35.82586 | 6.58448 | 17446 ft | 346 kts | 65° |
| 2026-04-14 06:50 | 35.83592 | 6.61157 | 17947 ft | 349 kts | 67° |
| 2026-04-14 06:50 | 35.84563 | 6.63909 | 18449 ft | 352 kts | 68° |
| 2026-04-14 06:51 | 35.85510 | 6.66704 | 18950 ft | 355 kts | 69° |
| 2026-04-14 06:51 | 35.86437 | 6.69534 | 19450 ft | 358 kts | 69° |
| 2026-04-14 06:51 | 35.87354 | 6.72401 | 19951 ft | 361 kts | 70° |
| 2026-04-14 06:51 | 35.88263 | 6.75299 | 20453 ft | 364 kts | 70° |
| 2026-04-14 06:52 | 35.89168 | 6.78228 | 20953 ft | 368 kts | 71° |
| 2026-04-14 06:52 | 35.90074 | 6.81194 | 21456 ft | 371 kts | 71° |
| 2026-04-14 06:52 | 35.90981 | 6.84189 | 21958 ft | 375 kts | 71° |
| 2026-04-14 06:52 | 35.91890 | 6.87216 | 22461 ft | 379 kts | 71° |
| 2026-04-14 06:53 | 35.92806 | 6.90279 | 22964 ft | 382 kts | 72° |
| 2026-04-14 06:53 | 35.93728 | 6.93374 | 23466 ft | 386 kts | 72° |
| 2026-04-14 06:53 | 35.94656 | 6.96503 | 23969 ft | 390 kts | 72° |
| 2026-04-14 06:53 | 35.95590 | 6.99665 | 24471 ft | 394 kts | 72° |
| 2026-04-14 06:54 | 35.96535 | 7.02866 | 24974 ft | 399 kts | 72° |
| 2026-04-14 06:54 | 35.97486 | 7.06098 | 25475 ft | 403 kts | 72° |
| 2026-04-14 06:54 | 35.98447 | 7.09369 | 25977 ft | 407 kts | 73° |
| 2026-04-14 06:54 | 35.99416 | 7.12674 | 26479 ft | 412 kts | 73° |
| 2026-04-14 06:55 | 36.00393 | 7.16014 | 26979 ft | 416 kts | 73° |
| 2026-04-14 06:55 | 36.01383 | 7.19400 | 27481 ft | 421 kts | 74° |
| 2026-04-14 06:55 | 36.02381 | 7.22822 | 27982 ft | 427 kts | 74° |
| 2026-04-14 06:55 | 36.03392 | 7.26293 | 28485 ft | 432 kts | 74° |
| 2026-04-14 06:56 | 36.04411 | 7.29802 | 28986 ft | 437 kts | 74° |
| 2026-04-14 06:56 | 36.05443 | 7.33358 | 29488 ft | 441 kts | 75° |
| 2026-04-14 06:56 | 36.06480 | 7.36938 | 29989 ft | 446 kts | 75° |
| 2026-04-14 06:56 | 36.07533 | 7.40578 | 30492 ft | 451 kts | 75° |
| 2026-04-14 06:57 | 36.08592 | 7.44245 | 31005 ft | 455 kts | 75° |
| 2026-04-14 06:57 | 36.09646 | 7.47886 | 32006 ft | 446 kts | 74° |
| 2026-04-14 06:57 | 36.10684 | 7.51470 | 33002 ft | 441 kts | 74° |
| 2026-04-14 06:57 | 36.11710 | 7.55016 | 33996 ft | 435 kts | 74° |
| 2026-04-14 06:58 | 36.12723 | 7.58526 | 34868 ft | 434 kts | 73° |
| 2026-04-14 06:58 | 36.13742 | 7.62074 | 35343 ft | 441 kts | 73° |
| 2026-04-14 06:58 | 36.14774 | 7.65678 | 35840 ft | 448 kts | 73° |
| 2026-04-14 06:58 | 36.15819 | 7.69334 | 36342 ft | 454 kts | 73° |
| 2026-04-14 06:59 | 36.16877 | 7.73043 | 36755 ft | 462 kts | 73° |
| 2026-04-14 06:59 | 36.17962 | 7.76851 | 36881 ft | 478 kts | 72° |
| 2026-04-14 06:59 | 36.19085 | 7.80800 | 36920 ft | 496 kts | 72° |
| 2026-04-14 06:59 | 36.20250 | 7.84904 | 36920 ft | 513 kts | 72° |
| 2026-04-14 07:00 | 36.21446 | 7.89121 | 36916 ft | 526 kts | 72° |
| 2026-04-14 07:00 | 36.23899 | 7.97758 | 36910 ft | 532 kts | 72° |
| 2026-04-14 07:01 | 36.26350 | 8.06385 | 36907 ft | 530 kts | 72° |
| 2026-04-14 07:01 | 36.28791 | 8.15001 | 36905 ft | 532 kts | 73° |
| 2026-04-14 07:02 | 36.31251 | 8.23724 | 36904 ft | 539 kts | 73° |
| 2026-04-14 07:02 | 36.33728 | 8.32540 | 36904 ft | 543 kts | 73° |